.
WxDataArchive / Data Records for 2006-12-13
2006-12-12 December 2006 2006-12-14

Data Records for Wednesday, 13 December 2006

Time	Temp	Chill	HIndex	Humid	Dewpt	 Wind 	HiWind	WindDir	Rain 	Barom 
-----	----	-----	------	-----	-----	------	------	-------	-----	----- 
00:00	51.1	51.1	51.1	88	47.7	3	7	248	0.00	29.890 
00:05	51.1	51.1	51.1	87	47.4	4	12	248	0.00	29.890 
00:10	51.3	51.3	51.3	85	46.9	5	12	248	0.00	29.890 
00:15	51.4	51.4	51.4	84	46.7	5	12	270	0.00	29.891 
00:20	51.6	51.6	51.6	83	46.6	6	15	270	0.00	29.891 
00:25	51.7	51.7	51.7	83	46.7	5	12	248	0.00	29.891 
00:30	51.7	51.7	51.7	82	46.4	5	11	248	0.00	29.899 
00:35	51.6	51.6	51.6	82	46.3	4	9	270	0.00	29.899 
00:40	51.6	51.6	51.6	82	46.3	4	11	248	0.00	29.899 
00:45	51.4	51.4	51.4	82	46.1	6	12	248	0.00	29.901 
00:50	51.1	51.1	51.1	82	45.8	4	10	248	0.00	29.901 
00:55	51.0	51.0	51.0	83	46.0	4	11	270	0.00	29.901 
01:00	50.8	50.8	50.8	83	45.8	5	12	248	0.00	29.903 
01:05	50.7	50.7	50.7	83	45.7	4	9	248	0.00	29.903 
01:10	50.7	50.7	50.7	83	45.7	4	11	248	0.00	29.903 
01:15	50.5	50.5	50.5	82	45.2	6	13	248	0.00	29.903 
01:20	50.5	50.5	50.5	83	45.5	4	10	270	0.00	29.903 
01:25	50.2	50.2	50.2	83	45.2	4	9	248	0.00	29.903 
01:30	50.1	50.1	50.1	84	45.5	3	6	248	0.00	29.915 
01:35	49.6	49.6	49.6	83	44.7	3	9	270	0.00	29.915 
01:40	49.4	49.4	49.4	84	44.8	2	6	248	0.00	29.915 
01:45	48.8	46.2	48.8	81	43.2	6	20	270	0.00	29.919 
01:50	48.5	47.1	48.5	82	43.3	4	12	248	0.00	29.919 
01:55	48.0	46.6	48.0	82	42.8	4	9	270	0.00	29.919 
02:00	47.7	47.7	47.7	82	42.5	3	7	248	0.00	29.926 
02:05	47.3	45.8	47.3	82	42.1	4	9	270	0.00	29.926 
02:10	47.0	44.7	47.0	84	42.4	5	11	270	0.00	29.926 
02:15	46.8	43.9	46.8	81	41.3	6	13	270	0.00	29.936 
02:20	46.5	44.1	46.5	81	41.0	5	14	270	0.00	29.936 
02:25	46.2	43.8	46.2	81	40.7	5	10	270	0.00	29.936 
02:30	46.1	44.4	46.1	82	40.9	4	12	248	0.00	29.941 
02:35	45.8	43.3	45.8	81	40.3	5	11	270	0.00	29.941 
02:40	45.5	41.3	45.5	81	40.0	8	16	248	0.00	29.941 
02:45	45.2	42.0	45.2	82	40.0	6	12	270	0.00	29.948 
02:50	44.8	42.1	44.8	83	40.0	5	10	270	0.00	29.948 
02:55	44.3	40.3	44.3	84	39.8	7	17	270	0.00	29.948 
03:00	44.1	41.3	44.1	85	39.9	5	12	270	0.00	29.958 
03:05	43.8	39.7	43.8	85	39.6	7	18	270	0.00	29.958 
03:10	43.5	40.6	43.5	86	39.6	5	11	270	0.00	29.958 
03:15	43.1	39.5	43.1	87	39.5	6	13	270	0.00	29.970 
03:20	42.9	39.9	42.9	86	39.0	5	13	270	0.00	29.970 
03:25	42.9	39.9	42.9	85	38.7	5	13	248	0.00	29.970 
03:30	42.9	39.9	42.9	84	38.4	5	12	270	0.00	29.971 
03:35	42.9	39.9	42.9	83	38.1	5	11	270	0.00	29.971 
03:40	42.9	42.9	42.9	83	38.1	3	10	270	0.00	29.971 
03:45	43.1	40.1	43.1	82	38.0	5	14	270	0.00	29.971 
03:50	43.1	40.9	43.1	82	38.0	4	11	270	0.00	29.971 
03:55	43.1	39.5	43.1	81	37.7	6	14	270	0.00	29.971 
04:00	42.9	40.7	42.9	79	36.8	4	12	270	0.00	29.972 
04:05	42.9	40.7	42.9	78	36.5	4	12	270	0.00	29.972 
04:10	42.9	40.7	42.9	77	36.2	4	14	248	0.00	29.972 
04:15	42.9	38.6	42.9	77	36.2	7	19	248	0.00	29.967 
04:20	42.9	40.7	42.9	77	36.2	4	11	270	0.00	29.967 
04:25	42.9	39.2	42.9	77	36.2	6	18	270	0.00	29.967 
04:30	42.9	39.9	42.9	76	35.9	5	13	248	0.00	29.958 
04:35	43.1	38.9	43.1	75	35.7	7	19	248	0.00	29.958 
04:40	42.9	40.7	42.9	76	35.9	4	9	270	0.00	29.958 
04:45	42.9	39.9	42.9	76	35.9	5	12	270	0.00	29.957 
04:50	42.8	39.8	42.8	76	35.8	5	13	270	0.00	29.957 
04:55	42.8	40.6	42.8	76	35.8	4	10	270	0.00	29.957 
05:00	42.6	39.5	42.6	77	35.9	5	14	248	0.00	29.957 
05:05	42.6	42.6	42.6	77	35.9	3	10	248	0.00	29.957 
05:10	42.5	40.2	42.5	77	35.8	4	14	270	0.00	29.957 
05:15	42.5	42.5	42.5	77	35.8	3	9	270	0.00	29.957 
05:20	42.5	42.5	42.5	78	36.1	2	10	248	0.00	29.957 
05:25	42.5	40.2	42.5	78	36.1	4	9	248	0.00	29.957 
05:30	42.5	42.5	42.5	78	36.1	3	9	270	0.00	29.957 
05:35	42.5	40.2	42.5	78	36.1	4	12	270	0.00	29.957 
05:40	42.3	42.3	42.3	79	36.3	3	7	248	0.00	29.957 
05:45	42.3	40.0	42.3	78	35.9	4	9	270	0.00	29.958 
05:50	42.3	42.3	42.3	79	36.3	3	5	248	0.00	29.958 
05:55	42.3	42.3	42.3	80	36.6	3	11	248	0.00	29.958 
06:00	42.2	39.9	42.2	81	36.8	4	9	248	0.00	29.960 
06:05	42.2	42.2	42.2	81	36.8	2	6	248	0.00	29.960 
06:10	42.1	42.1	42.1	81	36.7	2	5	248	0.00	29.960 
06:15	42.1	42.1	42.1	82	37.0	2	7	248	0.00	29.962 
06:20	42.1	42.1	42.1	82	37.0	2	6	248	0.00	29.962 
06:25	42.1	42.1	42.1	82	37.0	2	5	248	0.00	29.962 
06:30	42.1	42.1	42.1	82	37.0	1	4	248	0.00	29.960 
06:35	41.9	41.9	41.9	83	37.1	1	7	248	0.00	29.960 
06:40	41.6	41.6	41.6	83	36.8	2	9	248	0.00	29.960 
06:45	41.5	41.5	41.5	83	36.7	3	11	248	0.00	29.961 
06:50	41.3	38.0	41.3	82	36.2	5	13	270	0.00	29.961 
06:55	41.1	37.8	41.1	81	35.7	5	11	270	0.00	29.961 
07:00	40.8	37.4	40.8	78	34.5	5	15	270	0.00	29.974 
07:05	40.5	36.4	40.5	78	34.2	6	13	270	0.00	29.974 
07:10	40.2	36.0	40.2	77	33.6	6	16	270	0.00	29.974 
07:15	40.1	35.9	40.1	76	33.2	6	16	270	0.00	29.982 
07:20	40.1	36.6	40.1	77	33.5	5	10	270	0.00	29.982 
07:25	39.9	35.6	39.9	75	32.6	6	14	270	0.00	29.982 
07:30	39.9	35.6	39.9	75	32.6	6	14	270	0.00	29.991 
07:35	39.8	34.9	39.8	72	31.5	7	19	270	0.00	29.991 
07:40	39.6	35.3	39.6	73	31.7	6	15	270	0.00	29.991 
07:45	39.6	34.7	39.6	73	31.7	7	16	270	0.00	29.992 
07:50	39.5	35.2	39.5	74	31.9	6	16	270	0.00	29.992 
07:55	39.5	35.2	39.5	74	31.9	6	16	270	0.00	29.992 
08:00	39.5	35.2	39.5	75	32.2	6	16	270	0.00	29.996 
08:05	39.3	35.7	39.3	76	32.4	5	12	270	0.00	29.996 
08:10	39.2	35.5	39.2	76	32.3	5	13	270	0.00	29.996 
08:15	39.1	35.4	39.1	77	32.5	5	12	270	0.00	29.997 
08:20	39.1	36.3	39.1	77	32.5	4	12	270	0.00	29.997 
08:25	39.1	35.4	39.1	77	32.5	5	13	270	0.00	29.997 
08:30	39.1	36.3	39.1	77	32.5	4	9	270	0.00	30.000 
08:35	39.1	39.1	39.1	78	32.8	3	15	248	0.00	30.000 
08:40	39.1	35.4	39.1	77	32.5	5	11	270	0.00	30.000 
08:45	39.2	36.4	39.2	78	32.9	4	11	248	0.00	30.000 
08:50	39.3	36.5	39.3	78	33.0	4	10	248	0.00	30.000 
08:55	39.3	39.3	39.3	79	33.3	3	9	248	0.00	30.000 
09:00	39.5	36.7	39.5	79	33.5	4	11	270	0.00	29.997 
09:05	39.5	39.5	39.5	79	33.5	3	13	248	0.00	29.997 
09:10	39.6	36.9	39.6	79	33.6	4	9	248	0.00	29.997 
09:15	39.8	37.1	39.8	79	33.8	4	9	270	0.00	29.996 
09:20	39.9	37.2	39.9	79	33.9	4	10	248	0.00	29.996 
09:25	39.9	36.4	39.9	78	33.6	5	11	270	0.00	29.996 
09:30	40.1	36.6	40.1	78	33.8	5	13	270	0.00	29.996 
09:35	40.1	36.6	40.1	79	34.1	5	10	270	0.00	29.996 
09:40	40.2	40.2	40.2	79	34.2	3	7	248	0.00	29.996 
09:45	40.2	36.7	40.2	79	34.2	5	13	270	0.00	30.003 
09:50	40.2	37.5	40.2	79	34.2	4	11	248	0.00	30.003 
09:55	40.3	37.7	40.3	79	34.3	4	10	270	0.00	30.003 
10:00	40.3	37.7	40.3	79	34.3	4	10	248	0.00	30.006 
10:05	40.5	37.9	40.5	78	34.2	4	14	270	0.00	30.006 
10:10	40.6	38.0	40.6	78	34.3	4	12	270	0.00	30.006 
10:15	40.8	37.4	40.8	77	34.2	5	15	270	0.00	30.006 
10:20	40.6	35.9	40.6	77	34.0	7	15	270	0.00	30.006 
10:25	40.5	35.7	40.5	77	33.9	7	14	248	0.00	30.006 
10:30	40.5	35.7	40.5	78	34.2	7	15	248	0.00	30.016 
10:35	40.5	37.1	40.5	78	34.2	5	13	270	0.00	30.016 
10:40	40.6	38.0	40.6	79	34.6	4	12	270	0.00	30.016 
10:45	40.8	37.4	40.8	78	34.5	5	10	270	0.00	30.012 
10:50	41.1	37.1	41.1	77	34.4	6	18	248	0.00	30.012 
10:55	41.5	39.1	41.5	77	34.8	4	13	270	0.00	30.012 
11:00	41.5	38.2	41.5	77	34.8	5	15	270	0.00	30.018 
11:05	41.5	36.4	41.5	77	34.8	8	19	270	0.00	30.018 
11:10	41.6	37.7	41.6	77	34.9	6	14	270	0.00	30.018 
11:15	41.8	37.9	41.8	77	35.1	6	15	270	0.00	30.015 
11:20	41.9	37.4	41.9	77	35.2	7	14	270	0.00	30.015 
11:25	42.1	38.9	42.1	77	35.4	5	15	270	0.00	30.015 
11:30	42.1	37.1	42.1	77	35.4	8	19	270	0.00	30.011 
11:35	42.2	39.9	42.2	77	35.5	4	9	270	0.00	30.011 
11:40	42.2	39.1	42.2	77	35.5	5	13	270	0.00	30.011 
11:45	42.2	39.1	42.2	78	35.8	5	13	270	0.00	30.009 
11:50	42.5	40.2	42.5	78	36.1	4	10	270	0.00	30.009 
11:55	42.6	39.5	42.6	77	35.9	5	13	270	0.00	30.009 
12:00	42.9	39.2	42.9	77	36.2	6	13	248	0.00	30.004 
12:05	43.2	40.2	43.2	76	36.2	5	14	270	0.00	30.004 
12:10	43.8	41.7	43.8	76	36.7	4	9	270	0.00	30.004 
12:15	44.3	42.3	44.3	75	36.9	4	12	270	0.00	29.993 
12:20	44.6	41.2	44.6	72	36.1	6	15	270	0.00	29.993 
12:25	44.5	41.8	44.5	73	36.4	5	14	270	0.00	29.993 
12:30	44.1	40.1	44.1	73	36.0	7	15	270	0.00	29.993 
12:35	44.2	40.8	44.2	74	36.4	6	13	270	0.00	29.993 
12:40	44.8	42.1	44.8	73	36.7	5	15	270	0.00	29.993 
12:45	44.8	41.5	44.8	72	36.3	6	14	270	0.00	29.986 
12:50	44.8	42.9	44.8	73	36.7	4	10	270	0.00	29.986 
12:55	45.1	45.1	45.1	73	37.0	3	8	248	0.00	29.986 
13:00	45.1	43.2	45.1	72	36.6	4	11	270	0.00	29.982 
13:05	45.4	45.4	45.4	73	37.3	3	7	270	0.00	29.982 
13:10	45.7	45.7	45.7	73	37.5	3	9	270	0.00	29.982 
13:15	46.1	46.1	46.1	73	37.9	3	11	248	0.00	29.979 
13:20	46.2	44.5	46.2	71	37.3	4	11	270	0.00	29.979 
13:25	46.5	44.8	46.5	70	37.3	4	11	270	0.00	29.979 
13:30	46.7	44.3	46.7	70	37.4	5	10	270	0.00	29.978 
13:35	46.8	45.2	46.8	70	37.5	4	10	270	0.00	29.978 
13:40	46.8	44.5	46.8	70	37.5	5	11	248	0.00	29.978 
13:45	46.8	45.2	46.8	71	37.9	4	7	248	0.00	29.973 
13:50	47.0	44.7	47.0	70	37.7	5	12	248	0.00	29.973 
13:55	47.1	44.2	47.1	69	37.5	6	15	270	0.00	29.973 
14:00	47.1	44.2	47.1	69	37.5	6	15	248	0.00	29.969 
14:05	47.4	45.2	47.4	68	37.4	5	11	248	0.00	29.969 
14:10	47.6	46.1	47.6	68	37.6	4	10	270	0.00	29.969 
14:15	47.7	45.5	47.7	68	37.7	5	15	270	0.00	29.970 
14:20	47.9	45.8	47.9	68	37.9	5	11	248	0.00	29.970 
14:25	47.9	45.2	47.9	68	37.9	6	12	270	0.00	29.970 
14:30	48.2	46.1	48.2	68	38.1	5	10	248	0.00	29.967 
14:35	48.3	46.2	48.3	67	37.9	5	15	248	0.00	29.967 
14:40	48.3	45.1	48.3	66	37.5	7	15	248	0.00	29.967 
14:45	48.5	47.1	48.5	67	38.0	4	10	248	0.00	29.965 
14:50	48.8	47.5	48.8	67	38.3	4	9	248	0.00	29.965 
14:55	48.8	46.8	48.8	66	38.0	5	13	270	0.00	29.965 
15:00	48.9	47.6	48.9	66	38.0	4	11	270	0.00	29.962 
15:05	49.1	47.2	49.1	66	38.2	5	14	270	0.00	29.962 
15:10	48.9	46.4	48.9	66	38.0	6	13	248	0.00	29.962 
15:15	48.9	46.9	48.9	67	38.4	5	14	248	0.00	29.963 
15:20	49.2	47.9	49.2	67	38.7	4	10	248	0.00	29.963 
15:25	49.5	48.3	49.5	66	38.6	4	9	248	0.00	29.963 
15:30	49.8	49.8	49.8	66	38.9	2	8	248	0.00	29.965 
15:35	50.1	50.1	50.1	65	38.8	3	9	248	0.00	29.965 
15:40	50.2	50.2	50.2	65	38.9	3	8	248	0.00	29.965 
15:45	50.1	50.1	50.1	65	38.8	6	12	248	0.00	29.970 
15:50	50.1	50.1	50.1	65	38.8	3	7	248	0.00	29.970 
15:55	49.9	49.9	49.9	66	39.0	2	5	248	0.00	29.970 
16:00	49.9	49.9	49.9	66	39.0	2	6	248	0.00	29.970 
16:05	49.9	49.9	49.9	66	39.0	2	7	248	0.00	29.970 
16:10	49.8	49.8	49.8	66	38.9	3	8	248	0.00	29.970 
16:15	49.8	49.8	49.8	66	38.9	3	7	248	0.00	29.973 
16:20	49.8	49.8	49.8	67	39.3	2	9	248	0.00	29.973 
16:25	49.6	49.6	49.6	67	39.1	1	4	248	0.00	29.973 
16:30	49.5	49.5	49.5	67	39.0	2	5	248	0.00	29.972 
16:35	49.4	49.4	49.4	68	39.3	2	5	248	0.00	29.972 
16:40	49.2	49.2	49.2	68	39.1	0	4	225	0.00	29.972 
16:45	48.9	48.9	48.9	69	39.2	1	4	248	0.00	29.971 
16:50	48.9	48.9	48.9	70	39.6	2	4	248	0.00	29.971 
16:55	48.8	48.8	48.8	70	39.5	1	3	248	0.00	29.971 
17:00	48.5	48.5	48.5	71	39.5	1	2	248	0.00	29.960 
17:05	48.2	48.2	48.2	71	39.2	1	6	225	0.00	29.960 
17:10	48.0	48.0	48.0	71	39.1	0	3	248	0.00	29.960 
17:15	47.6	47.6	47.6	72	39.0	0	1	248	0.00	29.957 
17:20	47.3	47.3	47.3	73	39.1	0	1	248	0.00	29.957 
17:25	46.8	46.8	46.8	74	39.0	0	2	248	0.00	29.957 
17:30	46.5	46.5	46.5	75	39.0	0	1	248	0.00	29.958 
17:35	46.2	46.2	46.2	76	39.1	0	2	248	0.00	29.958 
17:40	46.1	46.1	46.1	76	39.0	0	0	---	0.00	29.958 
17:45	45.8	45.8	45.8	77	39.0	0	1	248	0.00	29.961 
17:50	45.5	45.5	45.5	77	38.7	0	2	248	0.00	29.961 
17:55	45.2	45.2	45.2	77	38.4	0	0	---	0.00	29.961 
18:00	44.9	44.9	44.9	78	38.5	0	1	248	0.00	29.963 
18:05	44.5	44.5	44.5	79	38.4	0	1	248	0.00	29.963 
18:10	44.3	44.3	44.3	79	38.2	0	1	248	0.00	29.963 
18:15	44.2	44.2	44.2	79	38.1	0	1	248	0.00	29.962 
18:20	44.1	44.1	44.1	80	38.3	0	1	248	0.00	29.962 
18:25	43.8	43.8	43.8	80	38.0	0	0	---	0.00	29.962 
18:30	43.5	43.5	43.5	81	38.1	0	1	248	0.00	29.962 
18:35	43.5	43.5	43.5	81	38.1	0	1	248	0.00	29.962 
18:40	43.3	43.3	43.3	81	37.9	0	1	270	0.00	29.962 
18:45	43.2	43.2	43.2	81	37.8	0	0	---	0.00	29.953 
18:50	43.2	43.2	43.2	81	37.8	0	2	270	0.00	29.953 
18:55	43.1	43.1	43.1	81	37.7	0	1	270	0.00	29.953 
19:00	43.1	43.1	43.1	81	37.7	0	3	292	0.00	29.951 
19:05	43.3	43.3	43.3	81	37.9	0	3	270	0.00	29.951 
19:10	43.5	43.5	43.5	80	37.7	0	1	292	0.00	29.951 
19:15	43.3	43.3	43.3	80	37.6	0	1	292	0.00	29.949 
19:20	43.2	43.2	43.2	80	37.5	0	1	292	0.00	29.949 
19:25	43.1	43.1	43.1	80	37.4	0	2	292	0.00	29.949 
19:30	43.1	43.1	43.1	81	37.7	0	2	292	0.00	29.949 
19:35	43.1	43.1	43.1	80	37.4	0	2	292	0.00	29.949 
19:40	43.1	43.1	43.1	80	37.4	0	2	292	0.00	29.949 
19:45	42.9	42.9	42.9	81	37.5	0	2	270	0.00	29.950 
19:50	42.8	42.8	42.8	81	37.4	0	1	270	0.00	29.950 
19:55	42.8	42.8	42.8	81	37.4	0	3	270	0.00	29.950 
20:00	42.8	42.8	42.8	81	37.4	0	3	248	0.00	29.948 
20:05	42.8	42.8	42.8	81	37.4	0	1	248	0.00	29.948 
20:10	42.6	42.6	42.6	81	37.2	0	1	248	0.00	29.948 
20:15	42.5	42.5	42.5	81	37.1	0	2	248	0.00	29.950 
20:20	42.3	42.3	42.3	81	36.9	0	1	248	0.00	29.950 
20:25	42.2	42.2	42.2	81	36.8	0	1	248	0.00	29.950 
20:30	42.1	42.1	42.1	82	37.0	0	2	248	0.00	29.950 
20:35	41.9	41.9	41.9	82	36.8	0	2	248	0.00	29.950 
20:40	42.1	42.1	42.1	82	37.0	0	2	248	0.00	29.950 
20:45	42.3	42.3	42.3	82	37.2	1	4	248	0.00	29.952 
20:50	42.6	42.6	42.6	81	37.2	0	2	248	0.00	29.952 
20:55	42.6	42.6	42.6	81	37.2	0	3	248	0.00	29.952 
21:00	42.5	42.5	42.5	81	37.1	0	2	248	0.00	29.956 
21:05	42.3	42.3	42.3	81	36.9	0	2	248	0.00	29.956 
21:10	42.3	42.3	42.3	82	37.2	1	2	248	0.00	29.956 
21:15	42.3	42.3	42.3	82	37.2	0	3	248	0.00	29.962 
21:20	42.3	42.3	42.3	82	37.2	0	2	248	0.00	29.962 
21:25	42.3	42.3	42.3	82	37.2	0	3	248	0.00	29.962 
21:30	42.2	42.2	42.2	82	37.1	0	2	248	0.00	29.964 
21:35	42.1	42.1	42.1	82	37.0	0	3	248	0.00	29.964 
21:40	42.1	42.1	42.1	83	37.3	0	2	248	0.00	29.964 
21:45	42.1	42.1	42.1	83	37.3	1	3	248	0.00	29.964 
21:50	42.1	42.1	42.1	83	37.3	0	2	248	0.00	29.964 
21:55	42.1	42.1	42.1	83	37.3	0	3	248	0.00	29.964 
22:00	42.2	42.2	42.2	83	37.4	0	2	248	0.00	29.963 
22:05	42.2	42.2	42.2	83	37.4	1	2	248	0.00	29.963 
22:10	42.2	42.2	42.2	82	37.1	1	3	270	0.00	29.963 
22:15	42.2	42.2	42.2	82	37.1	1	2	270	0.00	29.959 
22:20	42.2	42.2	42.2	82	37.1	1	3	248	0.00	29.959 
22:25	42.2	42.2	42.2	82	37.1	1	3	248	0.00	29.959 
22:30	42.2	42.2	42.2	82	37.1	0	3	202	0.00	29.949 
22:35	42.2	42.2	42.2	82	37.1	1	2	248	0.00	29.949 
22:40	42.1	42.1	42.1	82	37.0	0	2	248	0.00	29.949 
22:45	42.1	42.1	42.1	82	37.0	1	3	248	0.00	29.941 
22:50	42.1	42.1	42.1	82	37.0	1	3	248	0.00	29.941 
22:55	42.2	42.2	42.2	82	37.1	1	3	248	0.00	29.941 
23:00	42.2	42.2	42.2	82	37.1	1	3	248	0.00	29.938 
23:05	42.2	42.2	42.2	82	37.1	1	2	248	0.00	29.938 
23:10	42.1	42.1	42.1	81	36.7	0	1	248	0.00	29.938 
23:15	41.8	41.8	41.8	82	36.7	0	2	248	0.00	29.931 
23:20	41.5	41.5	41.5	83	36.7	0	3	248	0.00	29.931 
23:25	41.3	41.3	41.3	83	36.5	0	2	248	0.00	29.931 
23:30	41.2	41.2	41.2	83	36.4	0	1	248	0.00	29.926 
23:35	41.1	41.1	41.1	84	36.6	0	3	248	0.00	29.926 
23:40	41.1	41.1	41.1	84	36.6	0	2	248	0.00	29.926 
23:45	41.2	41.2	41.2	84	36.7	0	3	248	0.00	29.928 
23:50	41.3	41.3	41.3	84	36.8	1	3	248	0.00	29.928 
23:55	41.3	41.3	41.3	84	36.8	1	2	248	0.00	29.928 

CoCoRaHS
IN-AL-39
A2 Web Hosting
Creative Commons License
GoDaddy
Look for:

loaded 2017-10-18 21:52:49 • last modified 2010-11-18 10:43:29
Privacy PolicyDisclaimer
• wx.awcolley.com is powered by PmWiki v.2002016 •
• all content (unless otherwise noted) © 2017 A W Colley